sensor_id;sensor_type;location;lat;lon;timestamp;P1;durP1;ratioP1;P2;durP2;ratioP2
68353;SDS011;55274;43.060;25.618;2022-10-20T00:01:13;18.15;;;7.38;;
68353;SDS011;55274;43.060;25.618;2022-10-20T00:03:41;17.50;;;7.07;;
68353;SDS011;55274;43.060;25.618;2022-10-20T00:06:14;21.73;;;7.55;;
68353;SDS011;55274;43.060;25.618;2022-10-20T00:08:44;13.73;;;6.70;;
68353;SDS011;55274;43.060;25.618;2022-10-20T00:11:11;20.38;;;7.15;;
68353;SDS011;55274;43.060;25.618;2022-10-20T00:13:39;17.10;;;7.07;;
68353;SDS011;55274;43.060;25.618;2022-10-20T00:16:06;15.00;;;7.32;;
68353;SDS011;55274;43.060;25.618;2022-10-20T00:18:32;15.70;;;7.13;;
68353;SDS011;55274;43.060;25.618;2022-10-20T00:20:58;15.52;;;6.40;;
68353;SDS011;55274;43.060;25.618;2022-10-20T00:23:24;17.95;;;7.45;;
68353;SDS011;55274;43.060;25.618;2022-10-20T00:26:07;14.60;;;7.07;;
68353;SDS011;55274;43.060;25.618;2022-10-20T00:28:36;16.73;;;6.63;;
68353;SDS011;55274;43.060;25.618;2022-10-20T00:31:03;17.75;;;7.75;;
68353;SDS011;55274;43.060;25.618;2022-10-20T00:33:30;17.90;;;6.80;;
68353;SDS011;55274;43.060;25.618;2022-10-20T00:35:59;12.27;;;6.63;;
68353;SDS011;55274;43.060;25.618;2022-10-20T00:38:29;16.52;;;7.35;;
68353;SDS011;55274;43.060;25.618;2022-10-20T00:40:55;15.75;;;7.65;;
68353;SDS011;55274;43.060;25.618;2022-10-20T00:43:21;17.88;;;7.28;;
68353;SDS011;55274;43.060;25.618;2022-10-20T00:45:51;20.65;;;8.68;;
68353;SDS011;55274;43.060;25.618;2022-10-20T00:48:21;22.40;;;8.50;;
68353;SDS011;55274;43.060;25.618;2022-10-20T00:50:51;17.70;;;7.43;;
68353;SDS011;55274;43.060;25.618;2022-10-20T00:53:22;14.38;;;6.78;;
68353;SDS011;55274;43.060;25.618;2022-10-20T00:55:50;20.17;;;8.00;;
68353;SDS011;55274;43.060;25.618;2022-10-20T00:58:18;17.45;;;7.70;;
68353;SDS011;55274;43.060;25.618;2022-10-20T01:00:45;17.20;;;7.72;;
68353;SDS011;55274;43.060;25.618;2022-10-20T01:03:19;15.38;;;7.20;;
68353;SDS011;55274;43.060;25.618;2022-10-20T01:05:49;14.38;;;6.80;;
68353;SDS011;55274;43.060;25.618;2022-10-20T01:08:15;17.38;;;8.23;;
68353;SDS011;55274;43.060;25.618;2022-10-20T01:13:56;15.38;;;6.90;;
68353;SDS011;55274;43.060;25.618;2022-10-20T01:25:05;17.35;;;7.10;;
68353;SDS011;55274;43.060;25.618;2022-10-20T01:27:32;22.45;;;7.35;;
68353;SDS011;55274;43.060;25.618;2022-10-20T01:32:43;15.90;;;7.00;;
68353;SDS011;55274;43.060;25.618;2022-10-20T01:35:26;20.10;;;7.28;;
68353;SDS011;55274;43.060;25.618;2022-10-20T01:38:13;18.92;;;7.57;;
68353;SDS011;55274;43.060;25.618;2022-10-20T01:40:59;16.05;;;6.97;;
68353;SDS011;55274;43.060;25.618;2022-10-20T01:43:36;21.38;;;7.13;;
68353;SDS011;55274;43.060;25.618;2022-10-20T01:46:06;16.63;;;7.32;;
68353;SDS011;55274;43.060;25.618;2022-10-20T01:48:35;16.13;;;7.32;;
68353;SDS011;55274;43.060;25.618;2022-10-20T01:51:03;13.80;;;6.60;;
68353;SDS011;55274;43.060;25.618;2022-10-20T01:53:29;15.57;;;6.95;;
68353;SDS011;55274;43.060;25.618;2022-10-20T01:55:55;17.23;;;7.20;;
68353;SDS011;55274;43.060;25.618;2022-10-20T02:01:20;16.70;;;7.30;;
68353;SDS011;55274;43.060;25.618;2022-10-20T02:03:58;14.07;;;6.53;;
68353;SDS011;55274;43.060;25.618;2022-10-20T02:12:31;16.45;;;6.85;;
68353;SDS011;55274;43.060;25.618;2022-10-20T02:15:01;17.05;;;6.43;;
68353;SDS011;55274;43.060;25.618;2022-10-20T02:17:28;15.68;;;7.10;;
68353;SDS011;55274;43.060;25.618;2022-10-20T02:19:54;19.67;;;6.75;;
68353;SDS011;55274;43.060;25.618;2022-10-20T02:22:21;17.77;;;6.80;;
68353;SDS011;55274;43.060;25.618;2022-10-20T02:24:47;13.57;;;6.32;;
68353;SDS011;55274;43.060;25.618;2022-10-20T02:29:51;20.17;;;7.05;;
68353;SDS011;55274;43.060;25.618;2022-10-20T02:32:27;14.57;;;6.88;;
68353;SDS011;55274;43.060;25.618;2022-10-20T02:34:55;71.35;;;10.48;;
68353;SDS011;55274;43.060;25.618;2022-10-20T02:37:21;21.05;;;7.80;;
68353;SDS011;55274;43.060;25.618;2022-10-20T02:39:46;19.02;;;7.32;;
68353;SDS011;55274;43.060;25.618;2022-10-20T02:42:12;20.02;;;6.80;;
68353;SDS011;55274;43.060;25.618;2022-10-20T02:44:41;17.30;;;7.22;;
68353;SDS011;55274;43.060;25.618;2022-10-20T02:47:07;23.13;;;7.35;;
68353;SDS011;55274;43.060;25.618;2022-10-20T02:49:32;19.15;;;7.28;;
68353;SDS011;55274;43.060;25.618;2022-10-20T02:51:58;23.27;;;7.40;;
68353;SDS011;55274;43.060;25.618;2022-10-20T02:54:24;20.05;;;8.32;;
68353;SDS011;55274;43.060;25.618;2022-10-20T02:56:52;23.38;;;7.90;;
68353;SDS011;55274;43.060;25.618;2022-10-20T02:59:18;18.42;;;7.50;;
68353;SDS011;55274;43.060;25.618;2022-10-20T03:01:44;19.55;;;8.20;;
68353;SDS011;55274;43.060;25.618;2022-10-20T03:04:11;23.88;;;7.68;;
68353;SDS011;55274;43.060;25.618;2022-10-20T03:06:38;13.35;;;7.38;;
68353;SDS011;55274;43.060;25.618;2022-10-20T03:09:04;34.35;;;9.82;;
68353;SDS011;55274;43.060;25.618;2022-10-20T03:11:30;25.17;;;9.20;;
68353;SDS011;55274;43.060;25.618;2022-10-20T03:13:56;29.58;;;8.25;;
68353;SDS011;55274;43.060;25.618;2022-10-20T03:16:22;16.25;;;8.02;;
68353;SDS011;55274;43.060;25.618;2022-10-20T03:18:48;18.17;;;7.90;;
68353;SDS011;55274;43.060;25.618;2022-10-20T03:21:14;20.40;;;7.75;;
68353;SDS011;55274;43.060;25.618;2022-10-20T03:23:39;25.63;;;8.65;;
68353;SDS011;55274;43.060;25.618;2022-10-20T03:26:06;19.20;;;7.07;;
68353;SDS011;55274;43.060;25.618;2022-10-20T03:28:32;17.52;;;7.22;;
68353;SDS011;55274;43.060;25.618;2022-10-20T03:30:58;19.88;;;7.97;;
68353;SDS011;55274;43.060;25.618;2022-10-20T03:33:24;21.83;;;8.48;;
68353;SDS011;55274;43.060;25.618;2022-10-20T03:35:50;18.27;;;7.88;;
68353;SDS011;55274;43.060;25.618;2022-10-20T03:38:16;25.13;;;7.88;;
68353;SDS011;55274;43.060;25.618;2022-10-20T03:40:42;25.13;;;8.52;;
68353;SDS011;55274;43.060;25.618;2022-10-20T03:43:07;29.65;;;8.20;;
68353;SDS011;55274;43.060;25.618;2022-10-20T03:45:33;41.13;;;8.18;;
68353;SDS011;55274;43.060;25.618;2022-10-20T03:47:59;29.30;;;8.32;;
68353;SDS011;55274;43.060;25.618;2022-10-20T03:50:25;24.83;;;8.80;;
68353;SDS011;55274;43.060;25.618;2022-10-20T03:52:51;18.85;;;8.35;;
68353;SDS011;55274;43.060;25.618;2022-10-20T03:55:17;25.67;;;8.88;;
68353;SDS011;55274;43.060;25.618;2022-10-20T03:57:44;18.88;;;7.50;;
68353;SDS011;55274;43.060;25.618;2022-10-20T04:00:10;21.13;;;8.55;;
68353;SDS011;55274;43.060;25.618;2022-10-20T04:02:37;23.15;;;8.05;;
68353;SDS011;55274;43.060;25.618;2022-10-20T04:05:09;19.10;;;8.52;;
68353;SDS011;55274;43.060;25.618;2022-10-20T04:07:36;22.48;;;9.48;;
68353;SDS011;55274;43.060;25.618;2022-10-20T04:10:02;29.55;;;10.10;;
68353;SDS011;55274;43.060;25.618;2022-10-20T04:12:29;41.10;;;9.20;;
68353;SDS011;55274;43.060;25.618;2022-10-20T04:14:55;30.73;;;9.73;;
68353;SDS011;55274;43.060;25.618;2022-10-20T04:17:20;47.35;;;15.02;;
68353;SDS011;55274;43.060;25.618;2022-10-20T04:19:46;32.58;;;10.80;;
68353;SDS011;55274;43.060;25.618;2022-10-20T04:22:12;29.98;;;9.98;;
68353;SDS011;55274;43.060;25.618;2022-10-20T04:24:38;37.42;;;11.23;;
68353;SDS011;55274;43.060;25.618;2022-10-20T04:27:04;52.08;;;10.55;;
68353;SDS011;55274;43.060;25.618;2022-10-20T04:29:30;31.45;;;9.35;;
68353;SDS011;55274;43.060;25.618;2022-10-20T04:31:56;36.63;;;11.05;;
68353;SDS011;55274;43.060;25.618;2022-10-20T04:34:22;29.88;;;11.25;;
68353;SDS011;55274;43.060;25.618;2022-10-20T04:36:48;36.40;;;11.93;;
68353;SDS011;55274;43.060;25.618;2022-10-20T04:39:14;48.10;;;11.88;;
68353;SDS011;55274;43.060;25.618;2022-10-20T04:41:41;28.17;;;11.25;;
68353;SDS011;55274;43.060;25.618;2022-10-20T04:44:07;39.95;;;11.43;;
68353;SDS011;55274;43.060;25.618;2022-10-20T04:46:32;37.10;;;10.82;;
68353;SDS011;55274;43.060;25.618;2022-10-20T04:48:58;31.30;;;12.23;;
68353;SDS011;55274;43.060;25.618;2022-10-20T04:51:24;44.97;;;12.52;;
68353;SDS011;55274;43.060;25.618;2022-10-20T04:53:50;51.70;;;13.60;;
68353;SDS011;55274;43.060;25.618;2022-10-20T04:56:17;53.75;;;13.48;;
68353;SDS011;55274;43.060;25.618;2022-10-20T04:58:51;42.88;;;11.55;;
68353;SDS011;55274;43.060;25.618;2022-10-20T05:01:18;54.78;;;12.80;;
68353;SDS011;55274;43.060;25.618;2022-10-20T05:03:45;61.10;;;12.48;;
68353;SDS011;55274;43.060;25.618;2022-10-20T05:06:18;47.17;;;13.07;;
68353;SDS011;55274;43.060;25.618;2022-10-20T05:08:47;64.40;;;11.88;;
68353;SDS011;55274;43.060;25.618;2022-10-20T05:11:15;57.90;;;15.32;;
68353;SDS011;55274;43.060;25.618;2022-10-20T05:13:42;42.20;;;11.95;;
68353;SDS011;55274;43.060;25.618;2022-10-20T05:16:08;43.25;;;12.07;;
68353;SDS011;55274;43.060;25.618;2022-10-20T05:18:35;51.70;;;13.25;;
68353;SDS011;55274;43.060;25.618;2022-10-20T05:21:06;57.20;;;13.65;;
68353;SDS011;55274;43.060;25.618;2022-10-20T05:23:39;64.90;;;15.50;;
68353;SDS011;55274;43.060;25.618;2022-10-20T05:26:07;50.00;;;14.18;;
68353;SDS011;55274;43.060;25.618;2022-10-20T05:28:34;39.10;;;13.98;;
68353;SDS011;55274;43.060;25.618;2022-10-20T05:31:01;37.63;;;11.95;;
68353;SDS011;55274;43.060;25.618;2022-10-20T05:33:30;47.50;;;13.38;;
68353;SDS011;55274;43.060;25.618;2022-10-20T05:35:57;42.08;;;11.77;;
68353;SDS011;55274;43.060;25.618;2022-10-20T05:38:23;53.13;;;13.30;;
68353;SDS011;55274;43.060;25.618;2022-10-20T05:40:49;59.72;;;13.75;;
68353;SDS011;55274;43.060;25.618;2022-10-20T05:43:15;59.50;;;13.65;;
68353;SDS011;55274;43.060;25.618;2022-10-20T05:45:41;59.65;;;13.23;;
68353;SDS011;55274;43.060;25.618;2022-10-20T05:48:06;69.63;;;14.65;;
68353;SDS011;55274;43.060;25.618;2022-10-20T05:50:32;73.15;;;16.73;;
68353;SDS011;55274;43.060;25.618;2022-10-20T05:52:58;52.95;;;14.70;;
68353;SDS011;55274;43.060;25.618;2022-10-20T05:55:24;52.17;;;13.80;;
68353;SDS011;55274;43.060;25.618;2022-10-20T05:57:50;44.97;;;14.00;;
68353;SDS011;55274;43.060;25.618;2022-10-20T06:00:17;58.33;;;16.25;;
68353;SDS011;55274;43.060;25.618;2022-10-20T06:02:53;88.65;;;20.20;;
68353;SDS011;55274;43.060;25.618;2022-10-20T06:05:19;96.93;;;26.30;;
68353;SDS011;55274;43.060;25.618;2022-10-20T06:07:44;58.13;;;17.02;;
68353;SDS011;55274;43.060;25.618;2022-10-20T06:10:10;61.70;;;16.67;;
68353;SDS011;55274;43.060;25.618;2022-10-20T06:12:36;40.03;;;14.50;;
68353;SDS011;55274;43.060;25.618;2022-10-20T06:15:02;62.25;;;16.23;;
68353;SDS011;55274;43.060;25.618;2022-10-20T06:17:28;61.30;;;16.77;;
68353;SDS011;55274;43.060;25.618;2022-10-20T06:19:53;57.95;;;15.23;;
68353;SDS011;55274;43.060;25.618;2022-10-20T06:22:19;41.97;;;14.25;;
68353;SDS011;55274;43.060;25.618;2022-10-20T06:24:45;31.65;;;14.07;;
68353;SDS011;55274;43.060;25.618;2022-10-20T06:27:11;48.38;;;15.52;;
68353;SDS011;55274;43.060;25.618;2022-10-20T06:29:37;40.30;;;14.50;;
68353;SDS011;55274;43.060;25.618;2022-10-20T06:32:02;35.83;;;15.38;;
68353;SDS011;55274;43.060;25.618;2022-10-20T06:34:28;34.95;;;13.90;;
68353;SDS011;55274;43.060;25.618;2022-10-20T06:36:54;37.10;;;15.07;;
68353;SDS011;55274;43.060;25.618;2022-10-20T06:39:21;46.45;;;15.73;;
68353;SDS011;55274;43.060;25.618;2022-10-20T06:41:51;100.55;;;17.17;;
68353;SDS011;55274;43.060;25.618;2022-10-20T06:44:22;68.72;;;18.65;;
68353;SDS011;55274;43.060;25.618;2022-10-20T06:46:49;53.17;;;15.48;;
68353;SDS011;55274;43.060;25.618;2022-10-20T06:49:16;58.50;;;17.48;;
68353;SDS011;55274;43.060;25.618;2022-10-20T06:51:42;28.55;;;13.68;;
68353;SDS011;55274;43.060;25.618;2022-10-20T06:54:08;50.95;;;16.38;;
68353;SDS011;55274;43.060;25.618;2022-10-20T06:56:34;133.93;;;22.95;;
68353;SDS011;55274;43.060;25.618;2022-10-20T06:59:01;163.88;;;24.80;;
68353;SDS011;55274;43.060;25.618;2022-10-20T07:01:27;107.05;;;20.92;;
68353;SDS011;55274;43.060;25.618;2022-10-20T07:04:06;61.33;;;16.25;;
68353;SDS011;55274;43.060;25.618;2022-10-20T07:06:36;59.58;;;15.68;;
68353;SDS011;55274;43.060;25.618;2022-10-20T07:09:04;50.53;;;14.95;;
68353;SDS011;55274;43.060;25.618;2022-10-20T07:11:32;23.05;;;12.00;;
68353;SDS011;55274;43.060;25.618;2022-10-20T07:13:58;26.40;;;12.38;;
68353;SDS011;55274;43.060;25.618;2022-10-20T07:16:27;36.35;;;13.63;;
68353;SDS011;55274;43.060;25.618;2022-10-20T07:18:54;21.30;;;11.55;;
68353;SDS011;55274;43.060;25.618;2022-10-20T07:21:22;18.63;;;11.48;;
68353;SDS011;55274;43.060;25.618;2022-10-20T07:23:53;30.60;;;12.68;;
68353;SDS011;55274;43.060;25.618;2022-10-20T07:26:22;22.25;;;12.15;;
68353;SDS011;55274;43.060;25.618;2022-10-20T07:28:50;20.08;;;11.57;;
68353;SDS011;55274;43.060;25.618;2022-10-20T07:31:19;19.17;;;11.38;;
68353;SDS011;55274;43.060;25.618;2022-10-20T07:33:47;22.85;;;10.90;;
68353;SDS011;55274;43.060;25.618;2022-10-20T07:36:14;28.10;;;12.43;;
68353;SDS011;55274;43.060;25.618;2022-10-20T07:38:42;22.42;;;11.77;;
68353;SDS011;55274;43.060;25.618;2022-10-20T07:41:08;21.88;;;12.05;;
68353;SDS011;55274;43.060;25.618;2022-10-20T07:43:35;21.33;;;11.55;;
68353;SDS011;55274;43.060;25.618;2022-10-20T07:46:02;20.58;;;11.35;;
68353;SDS011;55274;43.060;25.618;2022-10-20T07:48:28;22.30;;;11.65;;
68353;SDS011;55274;43.060;25.618;2022-10-20T07:51:11;21.15;;;11.70;;
68353;SDS011;55274;43.060;25.618;2022-10-20T07:53:46;22.15;;;11.93;;
68353;SDS011;55274;43.060;25.618;2022-10-20T07:56:13;21.17;;;11.52;;
68353;SDS011;55274;43.060;25.618;2022-10-20T07:58:39;20.88;;;11.70;;
68353;SDS011;55274;43.060;25.618;2022-10-20T08:01:05;20.65;;;11.50;;
68353;SDS011;55274;43.060;25.618;2022-10-20T08:03:32;21.30;;;12.02;;
68353;SDS011;55274;43.060;25.618;2022-10-20T08:05:58;26.65;;;12.68;;
68353;SDS011;55274;43.060;25.618;2022-10-20T08:08:23;31.35;;;12.45;;
68353;SDS011;55274;43.060;25.618;2022-10-20T08:10:49;26.77;;;12.25;;
68353;SDS011;55274;43.060;25.618;2022-10-20T08:13:15;23.35;;;11.73;;
68353;SDS011;55274;43.060;25.618;2022-10-20T08:15:41;19.08;;;10.77;;
68353;SDS011;55274;43.060;25.618;2022-10-20T08:18:07;21.23;;;11.80;;
68353;SDS011;55274;43.060;25.618;2022-10-20T08:20:33;21.65;;;10.57;;
68353;SDS011;55274;43.060;25.618;2022-10-20T08:22:58;28.25;;;11.48;;
68353;SDS011;55274;43.060;25.618;2022-10-20T08:25:25;20.92;;;10.85;;
68353;SDS011;55274;43.060;25.618;2022-10-20T08:27:51;26.23;;;11.90;;
68353;SDS011;55274;43.060;25.618;2022-10-20T08:30:16;19.42;;;10.82;;
68353;SDS011;55274;43.060;25.618;2022-10-20T08:32:43;44.22;;;12.27;;
68353;SDS011;55274;43.060;25.618;2022-10-20T08:35:08;24.30;;;11.55;;
68353;SDS011;55274;43.060;25.618;2022-10-20T08:37:34;16.60;;;10.50;;
68353;SDS011;55274;43.060;25.618;2022-10-20T08:40:03;17.45;;;10.32;;
68353;SDS011;55274;43.060;25.618;2022-10-20T08:42:29;19.85;;;10.52;;
68353;SDS011;55274;43.060;25.618;2022-10-20T08:45:00;20.27;;;10.75;;
68353;SDS011;55274;43.060;25.618;2022-10-20T08:47:30;17.67;;;10.65;;
68353;SDS011;55274;43.060;25.618;2022-10-20T08:50:01;16.50;;;9.90;;
68353;SDS011;55274;43.060;25.618;2022-10-20T08:52:30;16.55;;;10.13;;
68353;SDS011;55274;43.060;25.618;2022-10-20T08:54:57;19.08;;;9.18;;
68353;SDS011;55274;43.060;25.618;2022-10-20T08:57:27;19.30;;;9.25;;
68353;SDS011;55274;43.060;25.618;2022-10-20T09:00:00;14.85;;;9.25;;
68353;SDS011;55274;43.060;25.618;2022-10-20T09:02:37;31.45;;;10.70;;
68353;SDS011;55274;43.060;25.618;2022-10-20T09:05:04;13.05;;;8.82;;
68353;SDS011;55274;43.060;25.618;2022-10-20T09:07:38;13.50;;;8.82;;
68353;SDS011;55274;43.060;25.618;2022-10-20T09:10:24;20.42;;;9.35;;
68353;SDS011;55274;43.060;25.618;2022-10-20T09:13:01;12.55;;;8.57;;
68353;SDS011;55274;43.060;25.618;2022-10-20T09:15:41;13.40;;;8.02;;
68353;SDS011;55274;43.060;25.618;2022-10-20T09:18:09;14.48;;;8.75;;
68353;SDS011;55274;43.060;25.618;2022-10-20T09:20:43;14.93;;;8.48;;
68353;SDS011;55274;43.060;25.618;2022-10-20T09:23:39;14.27;;;7.90;;
68353;SDS011;55274;43.060;25.618;2022-10-20T09:26:14;12.90;;;8.02;;
68353;SDS011;55274;43.060;25.618;2022-10-20T09:28:42;17.27;;;9.25;;
68353;SDS011;55274;43.060;25.618;2022-10-20T09:31:23;14.57;;;8.45;;
68353;SDS011;55274;43.060;25.618;2022-10-20T09:33:57;14.05;;;8.48;;
68353;SDS011;55274;43.060;25.618;2022-10-20T09:36:23;16.15;;;8.52;;
68353;SDS011;55274;43.060;25.618;2022-10-20T09:38:54;20.02;;;9.65;;
68353;SDS011;55274;43.060;25.618;2022-10-20T09:41:30;15.25;;;8.10;;
68353;SDS011;55274;43.060;25.618;2022-10-20T09:44:01;16.00;;;8.45;;
68353;SDS011;55274;43.060;25.618;2022-10-20T09:46:36;12.90;;;8.30;;
68353;SDS011;55274;43.060;25.618;2022-10-20T09:49:07;26.30;;;9.02;;
68353;SDS011;55274;43.060;25.618;2022-10-20T09:51:47;17.13;;;9.23;;
68353;SDS011;55274;43.060;25.618;2022-10-20T09:54:16;14.38;;;7.63;;
68353;SDS011;55274;43.060;25.618;2022-10-20T09:56:44;13.23;;;8.48;;
68353;SDS011;55274;43.060;25.618;2022-10-20T09:59:28;14.38;;;7.93;;
68353;SDS011;55274;43.060;25.618;2022-10-20T10:01:59;16.20;;;7.82;;
68353;SDS011;55274;43.060;25.618;2022-10-20T10:04:51;16.65;;;8.70;;
68353;SDS011;55274;43.060;25.618;2022-10-20T10:09:50;14.90;;;8.60;;
68353;SDS011;55274;43.060;25.618;2022-10-20T10:12:21;16.77;;;8.52;;
68353;SDS011;55274;43.060;25.618;2022-10-20T10:15:22;29.98;;;8.73;;
68353;SDS011;55274;43.060;25.618;2022-10-20T10:17:43;12.02;;;7.30;;
68353;SDS011;55274;43.060;25.618;2022-10-20T10:22:38;12.07;;;7.38;;
68353;SDS011;55274;43.060;25.618;2022-10-20T10:25:05;22.42;;;7.90;;
68353;SDS011;55274;43.060;25.618;2022-10-20T10:27:38;14.88;;;7.40;;
68353;SDS011;55274;43.060;25.618;2022-10-20T10:32:59;17.65;;;7.72;;
68353;SDS011;55274;43.060;25.618;2022-10-20T10:35:26;23.50;;;9.90;;
68353;SDS011;55274;43.060;25.618;2022-10-20T10:37:56;19.48;;;10.18;;
68353;SDS011;55274;43.060;25.618;2022-10-20T10:46:20;23.25;;;8.65;;
68353;SDS011;55274;43.060;25.618;2022-10-20T10:56:50;33.03;;;9.77;;
68353;SDS011;55274;43.060;25.618;2022-10-20T11:05:03;23.70;;;6.53;;
68353;SDS011;55274;43.060;25.618;2022-10-20T11:08:03;15.32;;;6.75;;
68353;SDS011;55274;43.060;25.618;2022-10-20T11:10:58;18.73;;;7.13;;
68353;SDS011;55274;43.060;25.618;2022-10-20T11:14:09;9.55;;;5.85;;
68353;SDS011;55274;43.060;25.618;2022-10-20T11:16:54;11.40;;;6.70;;
68353;SDS011;55274;43.060;25.618;2022-10-20T11:25:06;12.88;;;6.53;;
68353;SDS011;55274;43.060;25.618;2022-10-20T11:27:50;20.00;;;6.57;;
68353;SDS011;55274;43.060;25.618;2022-10-20T11:30:17;11.00;;;5.38;;
68353;SDS011;55274;43.060;25.618;2022-10-20T11:32:51;10.60;;;5.43;;
68353;SDS011;55274;43.060;25.618;2022-10-20T11:41:16;12.77;;;5.57;;
68353;SDS011;55274;43.060;25.618;2022-10-20T11:43:54;10.48;;;5.25;;
68353;SDS011;55274;43.060;25.618;2022-10-20T11:49:07;8.00;;;5.25;;
68353;SDS011;55274;43.060;25.618;2022-10-20T11:57:06;17.17;;;5.22;;
68353;SDS011;55274;43.060;25.618;2022-10-20T12:03:01;14.10;;;5.18;;
68353;SDS011;55274;43.060;25.618;2022-10-20T12:08:01;20.38;;;6.03;;
68353;SDS011;55274;43.060;25.618;2022-10-20T12:29:46;11.13;;;5.28;;
68353;SDS011;55274;43.060;25.618;2022-10-20T12:39:50;10.50;;;6.10;;
68353;SDS011;55274;43.060;25.618;2022-10-20T12:42:28;13.23;;;5.53;;
68353;SDS011;55274;43.060;25.618;2022-10-20T12:44:57;17.00;;;7.97;;
68353;SDS011;55274;43.060;25.618;2022-10-20T12:47:29;8.30;;;4.90;;
68353;SDS011;55274;43.060;25.618;2022-10-20T12:49:59;8.32;;;4.95;;
68353;SDS011;55274;43.060;25.618;2022-10-20T12:52:46;11.27;;;5.35;;
68353;SDS011;55274;43.060;25.618;2022-10-20T12:55:29;12.15;;;5.00;;
68353;SDS011;55274;43.060;25.618;2022-10-20T13:06:01;8.30;;;4.65;;
68353;SDS011;55274;43.060;25.618;2022-10-20T13:11:32;8.85;;;4.97;;
68353;SDS011;55274;43.060;25.618;2022-10-20T13:16:41;7.70;;;4.78;;
68353;SDS011;55274;43.060;25.618;2022-10-20T13:19:13;9.93;;;5.00;;
68353;SDS011;55274;43.060;25.618;2022-10-20T13:21:45;8.10;;;5.32;;
68353;SDS011;55274;43.060;25.618;2022-10-20T13:27:01;12.80;;;5.72;;
68353;SDS011;55274;43.060;25.618;2022-10-20T13:29:39;39.33;;;7.40;;
68353;SDS011;55274;43.060;25.618;2022-10-20T13:37:24;15.75;;;5.35;;
68353;SDS011;55274;43.060;25.618;2022-10-20T13:43:00;11.23;;;5.40;;
68353;SDS011;55274;43.060;25.618;2022-10-20T13:45:56;10.32;;;5.40;;
68353;SDS011;55274;43.060;25.618;2022-10-20T13:51:37;13.55;;;6.07;;
68353;SDS011;55274;43.060;25.618;2022-10-20T13:54:18;11.27;;;5.03;;
68353;SDS011;55274;43.060;25.618;2022-10-20T13:56:49;10.48;;;5.28;;
68353;SDS011;55274;43.060;25.618;2022-10-20T14:01:45;10.85;;;5.30;;
68353;SDS011;55274;43.060;25.618;2022-10-20T14:04:35;8.88;;;5.00;;
68353;SDS011;55274;43.060;25.618;2022-10-20T14:07:02;18.40;;;6.00;;
68353;SDS011;55274;43.060;25.618;2022-10-20T14:09:29;10.77;;;5.72;;
68353;SDS011;55274;43.060;25.618;2022-10-20T14:12:04;12.05;;;5.93;;
68353;SDS011;55274;43.060;25.618;2022-10-20T14:14:35;8.23;;;4.68;;
68353;SDS011;55274;43.060;25.618;2022-10-20T14:17:06;11.45;;;5.35;;
68353;SDS011;55274;43.060;25.618;2022-10-20T14:19:33;12.50;;;5.22;;
68353;SDS011;55274;43.060;25.618;2022-10-20T14:22:10;11.50;;;5.07;;
68353;SDS011;55274;43.060;25.618;2022-10-20T14:24:44;13.10;;;5.80;;
68353;SDS011;55274;43.060;25.618;2022-10-20T14:27:19;15.57;;;5.75;;
68353;SDS011;55274;43.060;25.618;2022-10-20T14:29:47;8.95;;;4.60;;
68353;SDS011;55274;43.060;25.618;2022-10-20T14:32:18;10.20;;;5.13;;
68353;SDS011;55274;43.060;25.618;2022-10-20T14:35:13;10.93;;;5.22;;
68353;SDS011;55274;43.060;25.618;2022-10-20T14:38:04;16.38;;;5.57;;
68353;SDS011;55274;43.060;25.618;2022-10-20T14:40:31;7.50;;;5.03;;
68353;SDS011;55274;43.060;25.618;2022-10-20T14:43:03;9.70;;;4.97;;
68353;SDS011;55274;43.060;25.618;2022-10-20T14:45:36;8.70;;;4.90;;
68353;SDS011;55274;43.060;25.618;2022-10-20T14:48:02;9.25;;;5.68;;
68353;SDS011;55274;43.060;25.618;2022-10-20T14:50:37;17.38;;;5.22;;
68353;SDS011;55274;43.060;25.618;2022-10-20T14:53:24;14.80;;;5.90;;
68353;SDS011;55274;43.060;25.618;2022-10-20T14:55:52;11.10;;;5.40;;
68353;SDS011;55274;43.060;25.618;2022-10-20T14:58:27;15.38;;;5.50;;
68353;SDS011;55274;43.060;25.618;2022-10-20T15:01:22;20.15;;;6.45;;
68353;SDS011;55274;43.060;25.618;2022-10-20T15:04:05;20.60;;;6.80;;
68353;SDS011;55274;43.060;25.618;2022-10-20T15:06:31;10.27;;;5.75;;
68353;SDS011;55274;43.060;25.618;2022-10-20T15:08:58;13.80;;;5.68;;
68353;SDS011;55274;43.060;25.618;2022-10-20T15:11:26;10.93;;;5.75;;
68353;SDS011;55274;43.060;25.618;2022-10-20T15:13:55;12.88;;;5.70;;
68353;SDS011;55274;43.060;25.618;2022-10-20T15:19:28;12.70;;;5.55;;
68353;SDS011;55274;43.060;25.618;2022-10-20T15:24:34;16.15;;;6.47;;
68353;SDS011;55274;43.060;25.618;2022-10-20T15:27:00;19.98;;;6.43;;
68353;SDS011;55274;43.060;25.618;2022-10-20T15:29:27;23.70;;;6.57;;
68353;SDS011;55274;43.060;25.618;2022-10-20T15:31:54;15.90;;;5.43;;
68353;SDS011;55274;43.060;25.618;2022-10-20T15:34:20;15.30;;;5.75;;
68353;SDS011;55274;43.060;25.618;2022-10-20T15:36:46;34.35;;;6.28;;
68353;SDS011;55274;43.060;25.618;2022-10-20T15:39:12;27.90;;;6.30;;
68353;SDS011;55274;43.060;25.618;2022-10-20T15:41:38;18.70;;;5.53;;
68353;SDS011;55274;43.060;25.618;2022-10-20T15:44:11;15.77;;;5.63;;
68353;SDS011;55274;43.060;25.618;2022-10-20T15:46:40;19.02;;;5.43;;
68353;SDS011;55274;43.060;25.618;2022-10-20T15:49:07;25.90;;;5.72;;
68353;SDS011;55274;43.060;25.618;2022-10-20T15:51:33;11.82;;;5.65;;
68353;SDS011;55274;43.060;25.618;2022-10-20T15:54:00;27.00;;;6.78;;
68353;SDS011;55274;43.060;25.618;2022-10-20T15:56:27;20.55;;;6.18;;
68353;SDS011;55274;43.060;25.618;2022-10-20T15:58:53;20.17;;;6.40;;
68353;SDS011;55274;43.060;25.618;2022-10-20T16:01:19;14.82;;;5.82;;
68353;SDS011;55274;43.060;25.618;2022-10-20T16:03:46;21.88;;;7.10;;
68353;SDS011;55274;43.060;25.618;2022-10-20T16:06:13;26.25;;;6.57;;
68353;SDS011;55274;43.060;25.618;2022-10-20T16:08:43;13.82;;;6.43;;
68353;SDS011;55274;43.060;25.618;2022-10-20T16:11:11;37.63;;;6.93;;
68353;SDS011;55274;43.060;25.618;2022-10-20T16:13:38;34.83;;;7.53;;
68353;SDS011;55274;43.060;25.618;2022-10-20T16:16:05;38.58;;;7.00;;
68353;SDS011;55274;43.060;25.618;2022-10-20T16:18:32;22.08;;;6.50;;
68353;SDS011;55274;43.060;25.618;2022-10-20T16:20:59;12.60;;;6.10;;
68353;SDS011;55274;43.060;25.618;2022-10-20T16:23:25;12.23;;;5.75;;
68353;SDS011;55274;43.060;25.618;2022-10-20T16:25:51;19.42;;;7.00;;
68353;SDS011;55274;43.060;25.618;2022-10-20T16:28:17;15.48;;;6.30;;
68353;SDS011;55274;43.060;25.618;2022-10-20T16:30:42;19.60;;;6.40;;
68353;SDS011;55274;43.060;25.618;2022-10-20T16:33:08;17.02;;;6.45;;
68353;SDS011;55274;43.060;25.618;2022-10-20T16:35:39;31.77;;;6.97;;
68353;SDS011;55274;43.060;25.618;2022-10-20T16:38:06;15.43;;;6.47;;
68353;SDS011;55274;43.060;25.618;2022-10-20T16:40:32;13.43;;;6.15;;
68353;SDS011;55274;43.060;25.618;2022-10-20T16:42:58;11.70;;;5.70;;
68353;SDS011;55274;43.060;25.618;2022-10-20T16:45:25;17.42;;;6.18;;
68353;SDS011;55274;43.060;25.618;2022-10-20T16:47:51;15.25;;;6.15;;
68353;SDS011;55274;43.060;25.618;2022-10-20T16:50:16;13.60;;;6.47;;
68353;SDS011;55274;43.060;25.618;2022-10-20T16:52:42;12.10;;;5.78;;
68353;SDS011;55274;43.060;25.618;2022-10-20T16:55:08;12.32;;;6.45;;